Time;durP1;ratioP1;P1;durP2;ratioP2;P2;SDS_P1;SDS_P2;PMS_P1;PMS_P2;Temp;Humidity;BMP_temperature;BMP_pressure;BME280_temperature;BME280_humidity;BME280_pressure;Samples;Min_cycle;Max_cycle;Signal;HPM_P1;HPM_P2
2022/12/12 00:00:34;;;;;;;7.65;3.42;;;;;;;;;;5005244;28;88101;-74
2022/12/12 00:03:00;;;;;;;7.70;3.35;;;;;;;;;;5006325;28;88160;-77
2022/12/12 00:05:27;;;;;;;8.65;3.55;;;;;;;;;;5004528;28;88865;-78
2022/12/12 00:07:54;;;;;;;7.70;3.28;;;;;;;;;;5005302;28;90178;-76
2022/12/12 00:10:20;;;;;;;6.85;3.20;;;;;;;;;;5006542;28;87430;-75
2022/12/12 00:12:47;;;;;;;6.55;3.00;;;;;;;;;;5006388;28;87715;-76
2022/12/12 00:15:13;;;;;;;7.20;2.85;;;;;;;;;;5005783;28;89138;-75
2022/12/12 00:17:40;;;;;;;5.82;2.78;;;;;;;;;;5006092;28;88859;-79
2022/12/12 00:20:06;;;;;;;6.70;2.83;;;;;;;;;;5007308;28;87559;-75
2022/12/12 00:22:33;;;;;;;6.07;2.83;;;;;;;;;;5008272;28;87715;-74
2022/12/12 00:24:59;;;;;;;6.68;2.75;;;;;;;;;;5004668;28;87616;-73
2022/12/12 00:27:26;;;;;;;7.50;3.28;;;;;;;;;;5005899;28;87945;-74
2022/12/12 00:29:53;;;;;;;7.47;3.25;;;;;;;;;;5004960;28;89956;-72
2022/12/12 00:32:19;;;;;;;6.90;3.03;;;;;;;;;;5004966;28;88750;-71
2022/12/12 00:34:45;;;;;;;6.65;2.97;;;;;;;;;;5004681;28;87835;-72
2022/12/12 00:37:12;;;;;;;6.40;2.97;;;;;;;;;;5005561;28;89350;-71
2022/12/12 00:39:41;;;;;;;9.07;2.88;;;;;;;;;;5005311;28;88099;-65
2022/12/12 00:42:07;;;;;;;14.77;3.10;;;;;;;;;;5006337;28;88701;-64
2022/12/12 00:44:33;;;;;;;14.90;3.20;;;;;;;;;;5005310;28;87857;-64
2022/12/12 00:47:00;;;;;;;7.57;2.80;;;;;;;;;;5005339;28;88084;-64
2022/12/12 00:49:26;;;;;;;9.07;2.85;;;;;;;;;;5005372;28;88093;-64
2022/12/12 00:51:52;;;;;;;8.52;2.80;;;;;;;;;;5004822;28;88357;-64
2022/12/12 00:54:19;;;;;;;7.70;2.90;;;;;;;;;;5005688;28;88421;-64
2022/12/12 00:56:45;;;;;;;7.50;2.92;;;;;;;;;;5004326;28;89329;-64
2022/12/12 00:59:12;;;;;;;7.18;3.17;;;;;;;;;;5006013;28;86802;-63
2022/12/12 01:01:38;;;;;;;6.68;2.97;;;;;;;;;;5005479;28;87638;-64
2022/12/12 01:04:05;;;;;;;6.57;2.80;;;;;;;;;;5006940;28;90026;-64
2022/12/12 01:06:32;;;;;;;7.45;2.90;;;;;;;;;;5004827;28;88561;-64
2022/12/12 01:08:58;;;;;;;7.30;2.65;;;;;;;;;;5005624;28;88232;-65
2022/12/12 01:11:24;;;;;;;7.57;2.90;;;;;;;;;;5005025;28;88049;-64
2022/12/12 01:13:52;;;;;;;7.78;2.95;;;;;;;;;;5005431;28;87934;-65
2022/12/12 01:16:18;;;;;;;6.45;2.58;;;;;;;;;;5005070;28;88274;-64
2022/12/12 01:18:45;;;;;;;8.20;2.90;;;;;;;;;;5005243;28;88002;-65
2022/12/12 01:21:12;;;;;;;6.80;2.90;;;;;;;;;;5005189;28;87878;-66
2022/12/12 01:23:39;;;;;;;7.57;2.97;;;;;;;;;;5005343;28;87622;-67
2022/12/12 01:26:07;;;;;;;6.40;2.60;;;;;;;;;;5000358;28;88136;-65
2022/12/12 01:28:34;;;;;;;6.22;2.78;;;;;;;;;;5004853;28;88310;-65
2022/12/12 01:31:00;;;;;;;7.07;2.65;;;;;;;;;;5014752;28;88478;-65
2022/12/12 01:33:27;;;;;;;6.60;2.90;;;;;;;;;;5005302;28;88545;-65
2022/12/12 01:35:53;;;;;;;5.93;2.63;;;;;;;;;;5004986;28;88172;-65
2022/12/12 01:38:20;;;;;;;7.18;2.55;;;;;;;;;;5004937;28;87862;-65
2022/12/12 01:40:46;;;;;;;7.32;2.90;;;;;;;;;;5004858;28;87745;-68
2022/12/12 01:43:14;;;;;;;6.80;2.95;;;;;;;;;;5004745;28;88337;-65
2022/12/12 01:45:56;;;;;;;6.00;2.63;;;;;;;;;;5004558;28;88048;-65
2022/12/12 01:48:27;;;;;;;5.72;2.42;;;;;;;;;;5008419;28;88345;-65
2022/12/12 01:50:55;;;;;;;6.07;2.70;;;;;;;;;;5004880;28;88066;-65
2022/12/12 01:53:23;;;;;;;7.20;3.05;;;;;;;;;;5004993;28;87747;-68
2022/12/12 01:55:49;;;;;;;5.85;2.47;;;;;;;;;;5003876;28;89046;-65
2022/12/12 01:58:16;;;;;;;6.22;2.60;;;;;;;;;;5005053;28;87620;-65
2022/12/12 02:00:42;;;;;;;6.47;2.55;;;;;;;;;;5003114;28;89949;-65
2022/12/12 02:03:09;;;;;;;6.55;2.78;;;;;;;;;;5004767;28;88049;-65
2022/12/12 02:05:40;;;;;;;5.82;2.50;;;;;;;;;;5004260;28;87678;-65
2022/12/12 02:08:08;;;;;;;6.97;2.78;;;;;;;;;;4999028;28;87977;-65
2022/12/12 02:10:35;;;;;;;6.32;2.47;;;;;;;;;;5006920;28;88208;-65
2022/12/12 02:13:04;;;;;;;6.38;2.80;;;;;;;;;;5005064;28;87847;-65
2022/12/12 02:15:36;;;;;;;6.15;2.65;;;;;;;;;;5004063;28;88227;-65
2022/12/12 02:18:07;;;;;;;8.32;2.83;;;;;;;;;;5004873;28;88234;-69
2022/12/12 02:20:57;;;;;;;6.72;2.65;;;;;;;;;;5003804;28;88759;-68
2022/12/12 02:23:35;;;;;;;5.95;2.72;;;;;;;;;;5004734;28;88120;-65
2022/12/12 02:26:17;;;;;;;6.22;2.75;;;;;;;;;;5004544;28;87617;-65
2022/12/12 02:28:43;;;;;;;6.35;2.88;;;;;;;;;;5004786;28;88121;-67
2022/12/12 02:31:12;;;;;;;6.40;2.53;;;;;;;;;;5004214;28;89464;-65
2022/12/12 02:33:39;;;;;;;6.00;2.90;;;;;;;;;;5006943;28;87727;-65
2022/12/12 02:36:13;;;;;;;6.15;2.58;;;;;;;;;;5004062;28;88565;-68
2022/12/12 02:39:12;;;;;;;6.60;2.80;;;;;;;;;;5004718;28;86874;-66
2022/12/12 02:41:46;;;;;;;6.10;2.50;;;;;;;;;;4992037;28;87627;-68
2022/12/12 02:44:12;;;;;;;7.15;2.70;;;;;;;;;;5004239;28;88254;-65
2022/12/12 02:46:47;;;;;;;5.93;2.60;;;;;;;;;;5003488;28;88418;-65
2022/12/12 02:49:17;;;;;;;6.18;2.60;;;;;;;;;;5002680;28;88714;-65
2022/12/12 02:51:44;;;;;;;6.78;2.65;;;;;;;;;;5003810;28;88158;-69
2022/12/12 02:54:15;;;;;;;6.43;2.85;;;;;;;;;;5006962;28;87882;-67
2022/12/12 02:56:43;;;;;;;6.45;2.78;;;;;;;;;;5004466;28;88767;-65
2022/12/12 02:59:12;;;;;;;7.35;2.53;;;;;;;;;;5007568;28;87699;-64
2022/12/12 03:01:52;;;;;;;5.70;2.67;;;;;;;;;;5007535;28;88362;-66
2022/12/12 03:07:45;;;;;;;7.20;2.70;;;;;;;;;;5007582;28;87818;-66
2022/12/12 03:10:30;;;;;;;6.07;2.75;;;;;;;;;;5007210;28;87813;-66
2022/12/12 03:13:15;;;;;;;5.80;2.45;;;;;;;;;;5006831;28;88979;-64
2022/12/12 03:15:48;;;;;;;6.53;2.58;;;;;;;;;;5004254;28;88119;-65
2022/12/12 03:18:20;;;;;;;6.43;2.50;;;;;;;;;;5000854;28;88102;-68
2022/12/12 03:20:49;;;;;;;6.53;2.55;;;;;;;;;;5007202;28;87908;-69
2022/12/12 03:23:27;;;;;;;6.88;3.13;;;;;;;;;;5007031;28;88364;-65
2022/12/12 03:26:03;;;;;;;6.78;2.63;;;;;;;;;;5006644;28;87805;-69
2022/12/12 03:28:36;;;;;;;11.60;2.90;;;;;;;;;;5007009;28;87984;-66
2022/12/12 03:31:05;;;;;;;7.65;2.70;;;;;;;;;;5008541;28;87953;-65
2022/12/12 03:33:32;;;;;;;5.35;2.42;;;;;;;;;;5006541;28;88182;-65
2022/12/12 03:36:02;;;;;;;5.97;2.60;;;;;;;;;;5006521;28;88492;-65
2022/12/12 03:38:31;;;;;;;6.25;2.50;;;;;;;;;;5005008;28;89125;-65
2022/12/12 03:41:00;;;;;;;7.00;2.50;;;;;;;;;;5008851;28;88330;-69
2022/12/12 03:43:26;;;;;;;6.00;2.38;;;;;;;;;;5006847;28;87997;-65
2022/12/12 03:45:52;;;;;;;7.07;2.97;;;;;;;;;;5006475;28;88328;-65
2022/12/12 03:48:22;;;;;;;8.80;2.47;;;;;;;;;;5006907;28;88042;-64
2022/12/12 03:50:51;;;;;;;6.28;2.65;;;;;;;;;;5006432;28;87867;-65
2022/12/12 03:53:22;;;;;;;6.85;2.60;;;;;;;;;;5006731;28;88597;-68
2022/12/12 03:56:10;;;;;;;5.57;2.58;;;;;;;;;;5007029;28;86743;-64
2022/12/12 03:58:36;;;;;;;7.38;2.55;;;;;;;;;;5006220;28;87750;-65
2022/12/12 04:01:06;;;;;;;5.70;2.50;;;;;;;;;;5006383;28;88132;-64
2022/12/12 04:03:33;;;;;;;8.80;2.83;;;;;;;;;;5008327;28;88637;-65
2022/12/12 04:12:57;;;;;;;7.60;2.63;;;;;;;;;;5000636;28;87526;-68
2022/12/12 04:14:30;;;;;;;6.50;2.40;;;;;;;;;;5006189;28;88761;-65
2022/12/12 04:17:00;;;;;;;5.78;2.83;;;;;;;;;;5006167;28;87855;-66
2022/12/12 04:25:06;;;;;;;6.38;2.55;;;;;;;;;;4999769;28;116055;-65
2022/12/12 04:27:38;;;;;;;6.65;2.70;;;;;;;;;;4994911;28;88191;-65
2022/12/12 04:30:05;;;;;;;7.22;2.70;;;;;;;;;;5004809;28;88497;-66
2022/12/12 04:33:01;;;;;;;7.07;2.50;;;;;;;;;;5006136;28;88632;-65
2022/12/12 04:35:47;;;;;;;5.88;2.47;;;;;;;;;;5000501;28;88322;-69
2022/12/12 04:38:20;;;;;;;7.68;2.85;;;;;;;;;;5005999;28;88081;-65
2022/12/12 04:40:49;;;;;;;6.65;2.65;;;;;;;;;;5005366;28;88928;-65
2022/12/12 04:43:18;;;;;;;7.82;2.92;;;;;;;;;;5005778;28;90705;-65
2022/12/12 04:45:44;;;;;;;;;;;;;;;;;;5006023;28;87860;-65
2022/12/12 04:48:19;;;;;;;5.35;2.40;;;;;;;;;;5009683;28;116632;-66
2022/12/12 04:50:50;;;;;;;6.00;2.65;;;;;;;;;;5010350;28;87738;-67
2022/12/12 04:53:19;;;;;;;5.88;2.47;;;;;;;;;;5015235;28;87839;-65
2022/12/12 04:55:47;;;;;;;7.20;2.65;;;;;;;;;;5004520;28;89063;-63
2022/12/12 04:58:13;;;;;;;;;;;;;;;;;;5005815;28;87798;-70
2022/12/12 05:01:00;;;;;;;8.75;2.90;;;;;;;;;;5006123;28;112702;-64
2022/12/12 05:03:37;;;;;;;6.28;2.72;;;;;;;;;;5005427;28;87782;-64
2022/12/12 05:06:09;;;;;;;7.28;2.70;;;;;;;;;;4996800;28;87742;-64
2022/12/12 05:08:43;;;;;;;6.75;2.53;;;;;;;;;;5005229;28;88029;-63
2022/12/12 05:11:10;;;;;;;6.55;2.60;;;;;;;;;;5004783;28;88262;-65
2022/12/12 05:13:37;;;;;;;5.57;2.35;;;;;;;;;;5005536;28;87519;-64
2022/12/12 05:16:09;;;;;;;5.95;2.58;;;;;;;;;;5005066;28;88543;-63
2022/12/12 05:18:36;;;;;;;6.53;2.90;;;;;;;;;;5005023;28;87679;-63
2022/12/12 05:21:02;;;;;;;6.25;2.60;;;;;;;;;;5004056;28;88700;-64
2022/12/12 05:23:29;;;;;;;7.18;2.70;;;;;;;;;;5000910;28;88160;-64
2022/12/12 05:26:05;;;;;;;6.03;2.60;;;;;;;;;;5005183;28;87885;-63
2022/12/12 05:28:31;;;;;;;6.70;3.03;;;;;;;;;;5005158;28;88379;-63
2022/12/12 05:30:57;;;;;;;5.22;2.47;;;;;;;;;;5017539;28;88203;-63
2022/12/12 05:33:24;;;;;;;7.05;3.05;;;;;;;;;;5008340;28;87653;-63
2022/12/12 05:35:50;;;;;;;6.65;2.60;;;;;;;;;;5004778;28;87611;-63
2022/12/12 05:38:17;;;;;;;6.45;2.60;;;;;;;;;;5005125;28;87347;-63
2022/12/12 05:40:43;;;;;;;7.30;2.67;;;;;;;;;;5004857;28;88264;-64
2022/12/12 05:43:10;;;;;;;5.88;2.72;;;;;;;;;;5004901;28;88032;-63
2022/12/12 05:45:36;;;;;;;6.60;2.80;;;;;;;;;;5004130;28;88313;-65
2022/12/12 05:48:02;;;;;;;6.60;2.80;;;;;;;;;;5004588;28;88082;-65
2022/12/12 05:50:29;;;;;;;7.13;3.05;;;;;;;;;;5004486;28;88223;-65
2022/12/12 05:52:55;;;;;;;6.38;2.80;;;;;;;;;;5003876;28;87704;-64
2022/12/12 05:55:22;;;;;;;6.35;2.65;;;;;;;;;;5007288;28;87808;-64
2022/12/12 05:57:48;;;;;;;6.60;2.63;;;;;;;;;;5004428;28;87694;-62
2022/12/12 06:00:14;;;;;;;6.45;2.55;;;;;;;;;;5004175;28;88200;-65
2022/12/12 06:02:41;;;;;;;7.35;3.10;;;;;;;;;;5005351;28;87508;-65
2022/12/12 06:05:07;;;;;;;7.43;2.90;;;;;;;;;;5004064;28;87720;-68
2022/12/12 06:07:34;;;;;;;7.95;2.75;;;;;;;;;;5004713;28;88114;-64
2022/12/12 06:10:00;;;;;;;7.18;2.67;;;;;;;;;;5003941;28;89097;-64
2022/12/12 06:12:27;;;;;;;7.70;3.00;;;;;;;;;;5004356;28;87686;-65
2022/12/12 06:14:53;;;;;;;7.25;2.75;;;;;;;;;;5004506;28;88015;-65
2022/12/12 06:17:19;;;;;;;7.82;3.15;;;;;;;;;;5007275;28;88486;-67
2022/12/12 06:19:46;;;;;;;7.13;2.83;;;;;;;;;;5003453;28;89039;-65
2022/12/12 06:22:12;;;;;;;6.20;2.72;;;;;;;;;;5004450;28;89191;-65
2022/12/12 06:24:39;;;;;;;6.35;2.83;;;;;;;;;;5003996;28;87935;-65
2022/12/12 06:27:05;;;;;;;7.28;3.00;;;;;;;;;;5004917;28;87827;-65
2022/12/12 06:29:32;;;;;;;7.55;3.00;;;;;;;;;;5011145;28;88174;-65
2022/12/12 06:31:58;;;;;;;7.75;3.05;;;;;;;;;;5010405;28;88029;-65
2022/12/12 06:34:24;;;;;;;7.43;2.78;;;;;;;;;;5006371;28;88961;-65
2022/12/12 06:36:51;;;;;;;6.95;2.90;;;;;;;;;;5007944;28;88229;-71
2022/12/12 06:39:17;;;;;;;7.05;3.10;;;;;;;;;;5010421;28;88042;-65
2022/12/12 06:41:44;;;;;;;7.35;2.92;;;;;;;;;;5007554;28;87994;-66
2022/12/12 06:44:10;;;;;;;8.48;2.80;;;;;;;;;;5007791;28;87716;-65
2022/12/12 06:46:36;;;;;;;8.07;3.10;;;;;;;;;;5007695;28;87869;-65
2022/12/12 06:49:08;;;;;;;7.15;3.22;;;;;;;;;;5007103;28;89066;-65
2022/12/12 06:51:37;;;;;;;6.95;2.88;;;;;;;;;;5008037;28;87192;-64
2022/12/12 06:54:04;;;;;;;6.78;3.00;;;;;;;;;;5007202;28;88116;-65
2022/12/12 06:56:30;;;;;;;7.57;2.95;;;;;;;;;;5006814;28;88454;-65
2022/12/12 06:58:57;;;;;;;7.57;3.20;;;;;;;;;;5008324;28;88468;-69
2022/12/12 07:01:24;;;;;;;8.38;3.10;;;;;;;;;;5006692;28;88451;-64
2022/12/12 07:03:51;;;;;;;6.75;2.80;;;;;;;;;;5006923;28;87757;-68
2022/12/12 07:06:18;;;;;;;7.57;3.22;;;;;;;;;;5007336;28;88135;-67
2022/12/12 07:08:45;;;;;;;7.43;3.00;;;;;;;;;;5007328;28;88618;-68
2022/12/12 07:11:13;;;;;;;8.13;3.45;;;;;;;;;;5007523;28;88176;-65
2022/12/12 07:13:40;;;;;;;9.50;3.58;;;;;;;;;;5007253;28;87774;-64
2022/12/12 07:16:06;;;;;;;8.48;3.20;;;;;;;;;;5002429;28;88255;-64
2022/12/12 07:18:33;;;;;;;9.73;3.22;;;;;;;;;;4992942;28;87637;-64
2022/12/12 07:21:03;;;;;;;7.70;3.40;;;;;;;;;;5009460;28;87736;-64
2022/12/12 07:23:29;;;;;;;8.38;3.33;;;;;;;;;;5002926;28;88503;-65
2022/12/12 07:25:56;;;;;;;8.50;3.50;;;;;;;;;;5006204;28;88892;-65
2022/12/12 07:28:22;;;;;;;8.77;3.75;;;;;;;;;;5006896;28;88399;-65
2022/12/12 07:30:49;;;;;;;8.93;3.38;;;;;;;;;;5011322;28;88031;-65
2022/12/12 07:33:16;;;;;;;9.18;3.67;;;;;;;;;;5006548;28;87990;-65
2022/12/12 07:35:42;;;;;;;8.98;3.72;;;;;;;;;;5006202;28;88324;-64
2022/12/12 07:38:09;;;;;;;9.32;3.50;;;;;;;;;;5006727;28;88094;-64
2022/12/12 07:40:36;;;;;;;8.43;4.03;;;;;;;;;;5006817;28;88020;-64
2022/12/12 07:43:03;;;;;;;8.68;3.60;;;;;;;;;;5009586;28;88245;-65
2022/12/12 07:45:29;;;;;;;8.93;3.97;;;;;;;;;;5004456;28;88912;-64
2022/12/12 07:47:55;;;;;;;8.57;3.67;;;;;;;;;;5004408;28;88949;-65
2022/12/12 07:50:22;;;;;;;7.40;3.65;;;;;;;;;;5004209;28;87682;-65
2022/12/12 07:52:49;;;;;;;8.43;3.42;;;;;;;;;;5004439;28;87869;-65
2022/12/12 07:55:15;;;;;;;8.15;3.67;;;;;;;;;;5004202;28;88529;-65
2022/12/12 07:57:41;;;;;;;7.78;3.58;;;;;;;;;;5004730;28;87675;-65
2022/12/12 08:00:09;;;;;;;9.13;3.85;;;;;;;;;;5004307;28;89402;-65
2022/12/12 08:02:38;;;;;;;8.20;4.05;;;;;;;;;;5003867;28;88372;-65
2022/12/12 08:05:05;;;;;;;7.53;3.83;;;;;;;;;;5008519;28;87342;-65
2022/12/12 08:07:31;;;;;;;8.23;3.72;;;;;;;;;;5006113;28;88078;-65
2022/12/12 08:09:57;;;;;;;7.95;3.50;;;;;;;;;;5005421;28;87707;-65
2022/12/12 08:12:24;;;;;;;8.10;3.70;;;;;;;;;;5000471;28;88760;-65
2022/12/12 08:14:50;;;;;;;7.95;3.83;;;;;;;;;;4999173;28;88722;-65
2022/12/12 08:17:16;;;;;;;10.05;4.10;;;;;;;;;;5005908;28;87732;-69
2022/12/12 08:19:43;;;;;;;9.60;3.85;;;;;;;;;;5005441;28;88163;-65
2022/12/12 08:22:09;;;;;;;8.20;3.67;;;;;;;;;;5005622;28;88489;-65
2022/12/12 08:24:35;;;;;;;7.90;3.80;;;;;;;;;;5005228;28;87884;-64
2022/12/12 08:27:02;;;;;;;8.68;3.90;;;;;;;;;;5007732;28;89642;-65
2022/12/12 08:29:28;;;;;;;7.57;3.58;;;;;;;;;;5012757;28;87076;-64
2022/12/12 08:31:55;;;;;;;8.80;4.00;;;;;;;;;;5011555;28;87798;-65
2022/12/12 08:34:21;;;;;;;8.80;3.58;;;;;;;;;;5005372;28;88479;-65
2022/12/12 08:36:48;;;;;;;8.18;4.00;;;;;;;;;;5004861;28;88271;-65
2022/12/12 08:39:15;;;;;;;9.45;4.05;;;;;;;;;;5005469;28;88673;-64
2022/12/12 08:41:42;;;;;;;;;;;;;;;;;;5005986;28;88168;-65
2022/12/12 08:44:12;;;;;;;8.13;3.78;;;;;;;;;;5005084;28;107642;-64
2022/12/12 08:46:38;;;;;;;7.78;3.75;;;;;;;;;;5005530;28;88536;-64
2022/12/12 08:49:04;;;;;;;8.57;3.95;;;;;;;;;;5008074;28;88143;-63
2022/12/12 08:51:31;;;;;;;8.98;4.00;;;;;;;;;;5005151;28;88033;-63
2022/12/12 08:53:57;;;;;;;8.27;4.00;;;;;;;;;;5004277;28;87482;-63
2022/12/12 08:56:24;;;;;;;8.85;4.03;;;;;;;;;;5004394;28;88108;-64
2022/12/12 08:58:50;;;;;;;8.60;3.88;;;;;;;;;;5004907;28;88028;-64
2022/12/12 09:01:18;;;;;;;8.73;3.80;;;;;;;;;;5004479;28;89203;-63
2022/12/12 09:03:45;;;;;;;8.30;3.67;;;;;;;;;;5004890;28;88449;-64
2022/12/12 09:06:13;;;;;;;8.48;3.70;;;;;;;;;;5005060;28;88253;-66
2022/12/12 09:08:39;;;;;;;8.38;3.95;;;;;;;;;;5007818;28;88326;-63
2022/12/12 09:11:06;;;;;;;8.90;3.83;;;;;;;;;;5004907;28;87835;-64
2022/12/12 09:13:32;;;;;;;9.13;4.03;;;;;;;;;;5004450;28;89039;-64
2022/12/12 09:15:59;;;;;;;7.95;3.90;;;;;;;;;;5004876;28;89035;-64
2022/12/12 09:18:25;;;;;;;8.00;3.85;;;;;;;;;;5005565;28;87178;-64
2022/12/12 09:20:53;;;;;;;9.30;4.32;;;;;;;;;;5004042;28;89135;-64
2022/12/12 09:23:20;;;;;;;8.32;3.42;;;;;;;;;;5002573;28;87913;-64
2022/12/12 09:25:46;;;;;;;8.27;3.70;;;;;;;;;;5002471;28;88472;-64
2022/12/12 09:28:14;;;;;;;9.25;3.75;;;;;;;;;;5004389;28;89648;-64
2022/12/12 09:30:41;;;;;;;8.35;3.25;;;;;;;;;;5009357;28;88156;-63
2022/12/12 09:33:07;;;;;;;8.20;3.42;;;;;;;;;;5004376;28;88766;-65
2022/12/12 09:35:33;;;;;;;7.93;3.50;;;;;;;;;;5004141;28;88024;-65
2022/12/12 09:38:00;;;;;;;10.50;3.53;;;;;;;;;;5001834;28;88231;-64
2022/12/12 09:40:32;;;;;;;8.52;3.67;;;;;;;;;;5000785;28;88250;-65
2022/12/12 09:42:59;;;;;;;6.90;3.20;;;;;;;;;;5004840;28;87635;-65
2022/12/12 09:45:26;;;;;;;8.07;3.83;;;;;;;;;;5003815;28;87557;-64
2022/12/12 09:47:55;;;;;;;8.50;3.60;;;;;;;;;;5003948;28;88376;-64
2022/12/12 09:50:32;;;;;;;8.48;3.40;;;;;;;;;;5002972;28;88377;-65
2022/12/12 09:53:12;;;;;;;7.82;3.45;;;;;;;;;;5006551;28;89552;-64
2022/12/12 09:55:43;;;;;;;8.05;3.65;;;;;;;;;;5002080;28;87767;-65
2022/12/12 09:58:30;;;;;;;7.95;3.83;;;;;;;;;;5003845;28;88046;-64
2022/12/12 10:01:19;;;;;;;8.40;3.80;;;;;;;;;;4999625;28;89279;-63
2022/12/12 10:03:54;;;;;;;8.07;3.70;;;;;;;;;;5003704;28;87661;-65
2022/12/12 10:06:21;;;;;;;7.32;3.50;;;;;;;;;;5004511;28;88360;-64
2022/12/12 10:09:23;;;;;;;7.85;3.63;;;;;;;;;;5008047;28;87433;-66
2022/12/12 10:11:49;;;;;;;8.15;3.78;;;;;;;;;;5004402;28;88700;-67
2022/12/12 10:14:27;;;;;;;8.30;3.70;;;;;;;;;;5006753;28;87895;-68
2022/12/12 10:16:55;;;;;;;9.55;3.88;;;;;;;;;;5009559;28;89204;-67
2022/12/12 10:19:26;;;;;;;8.57;3.67;;;;;;;;;;5006382;28;88128;-67
2022/12/12 10:21:55;;;;;;;7.57;3.55;;;;;;;;;;5006971;28;88161;-66
2022/12/12 10:24:31;;;;;;;7.32;3.50;;;;;;;;;;5006434;28;87816;-70
2022/12/12 10:26:59;;;;;;;7.78;3.30;;;;;;;;;;5007162;28;87917;-67
2022/12/12 10:29:25;;;;;;;10.20;3.80;;;;;;;;;;5004998;28;87803;-68
2022/12/12 10:31:58;;;;;;;7.47;3.42;;;;;;;;;;5006905;28;87653;-63
2022/12/12 10:34:24;;;;;;;8.13;3.42;;;;;;;;;;5005088;28;87931;-65
2022/12/12 10:36:51;;;;;;;8.73;3.90;;;;;;;;;;5006754;28;88465;-70
2022/12/12 10:39:20;;;;;;;8.45;3.58;;;;;;;;;;5009935;28;88124;-68
2022/12/12 10:41:50;;;;;;;7.97;3.55;;;;;;;;;;5006574;28;88978;-62
2022/12/12 10:44:24;;;;;;;7.65;3.33;;;;;;;;;;5006532;28;87955;-62
2022/12/12 10:46:58;;;;;;;7.88;3.50;;;;;;;;;;4994553;28;88523;-61
2022/12/12 10:49:25;;;;;;;8.55;3.00;;;;;;;;;;5007257;28;88171;-61
2022/12/12 10:51:52;;;;;;;6.93;3.10;;;;;;;;;;5006342;28;88041;-62
2022/12/12 10:54:20;;;;;;;7.47;3.28;;;;;;;;;;5005883;28;88058;-62
2022/12/12 10:57:06;;;;;;;9.07;3.55;;;;;;;;;;5006291;28;88213;-61
2022/12/12 10:59:32;;;;;;;;;;;;;;;;;;5007018;28;88174;-61
2022/12/12 11:01:58;;;;;;;7.22;3.30;;;;;;;;;;5010670;28;88117;-61
2022/12/12 11:04:43;;;;;;;7.70;3.15;;;;;;;;;;5006570;28;87580;-61
2022/12/12 11:07:15;;;;;;;9.25;3.63;;;;;;;;;;5005829;28;88661;-61
2022/12/12 11:09:44;;;;;;;7.50;3.38;;;;;;;;;;5006324;28;88450;-61
2022/12/12 11:12:15;;;;;;;8.15;3.38;;;;;;;;;;5006074;28;87667;-61
2022/12/12 11:14:52;;;;;;;6.57;2.95;;;;;;;;;;5005457;28;88406;-61
2022/12/12 11:17:25;;;;;;;7.28;3.40;;;;;;;;;;5006191;28;88138;-61
2022/12/12 11:19:52;;;;;;;;;;;;;;;;;;5006438;28;87826;-61
2022/12/12 11:22:18;;;;;;;7.15;3.03;;;;;;;;;;5010183;28;108990;-61
2022/12/12 11:24:46;;;;;;;7.80;3.08;;;;;;;;;;5005957;28;87198;-61
2022/12/12 11:27:24;;;;;;;7.22;3.10;;;;;;;;;;5005513;28;88108;-61
2022/12/12 11:29:51;;;;;;;7.72;3.22;;;;;;;;;;5014600;28;88726;-61
2022/12/12 11:32:18;;;;;;;;;;;;;;;;;;5006317;28;88606;-61
2022/12/12 11:34:47;;;;;;;7.47;3.30;;;;;;;;;;5007001;28;118214;-61
2022/12/12 11:37:18;;;;;;;7.07;3.10;;;;;;;;;;5006249;28;89347;-61
2022/12/12 11:39:47;;;;;;;7.43;3.40;;;;;;;;;;5005926;28;87840;-61
2022/12/12 11:42:16;;;;;;;8.23;3.20;;;;;;;;;;5006197;28;88028;-61
2022/12/12 11:44:43;;;;;;;7.03;3.05;;;;;;;;;;5008523;28;88463;-61
2022/12/12 11:47:27;;;;;;;8.02;3.22;;;;;;;;;;5006004;28;88352;-61
2022/12/12 11:49:55;;;;;;;6.95;2.97;;;;;;;;;;5006282;28;87486;-61
2022/12/12 11:52:28;;;;;;;7.28;3.30;;;;;;;;;;5005498;28;88118;-61
2022/12/12 11:54:55;;;;;;;;;;;;;;;;;;5006004;28;88093;-61
2022/12/12 11:57:42;;;;;;;7.80;3.15;;;;;;;;;;5006283;28;103347;-60
2022/12/12 12:00:15;;;;;;;6.82;3.10;;;;;;;;;;5005581;28;87784;-62
2022/12/12 12:02:50;;;;;;;6.95;2.85;;;;;;;;;;5005859;28;88700;-62
2022/12/12 12:05:17;;;;;;;6.78;2.90;;;;;;;;;;5005578;28;88116;-62
2022/12/12 12:08:01;;;;;;;8.02;2.92;;;;;;;;;;5008913;28;87898;-62
2022/12/12 12:10:46;;;;;;;6.63;2.97;;;;;;;;;;5005573;28;88136;-68
2022/12/12 12:13:15;;;;;;;7.35;2.90;;;;;;;;;;5005093;28;88042;-65
2022/12/12 12:15:50;;;;;;;7.25;3.00;;;;;;;;;;5005144;28;89510;-66
2022/12/12 12:18:40;;;;;;;6.93;3.15;;;;;;;;;;5003876;28;88249;-63
2022/12/12 12:21:36;;;;;;;7.18;3.30;;;;;;;;;;5005433;28;87954;-62
2022/12/12 12:24:19;;;;;;;6.80;2.80;;;;;;;;;;5004215;28;88830;-65
2022/12/12 12:27:00;;;;;;;7.07;2.90;;;;;;;;;;5004258;28;88123;-62
2022/12/12 12:29:27;;;;;;;7.40;2.80;;;;;;;;;;5000808;28;87963;-61
2022/12/12 12:32:07;;;;;;;7.82;3.42;;;;;;;;;;5007119;28;88209;-62
2022/12/12 12:34:43;;;;;;;7.82;3.40;;;;;;;;;;5004334;28;89041;-62
2022/12/12 12:37:19;;;;;;;7.00;3.03;;;;;;;;;;5002894;28;88183;-61
2022/12/12 12:39:57;;;;;;;6.70;2.80;;;;;;;;;;5002941;28;88160;-62
2022/12/12 12:42:42;;;;;;;7.70;3.00;;;;;;;;;;5002826;28;89670;-61
2022/12/12 12:45:15;;;;;;;7.38;2.92;;;;;;;;;;5002973;28;87977;-62
2022/12/12 12:47:51;;;;;;;7.75;2.80;;;;;;;;;;5004067;28;89092;-62
2022/12/12 12:50:38;;;;;;;6.20;2.88;;;;;;;;;;5003571;28;88639;-61
2022/12/12 12:53:14;;;;;;;7.95;2.72;;;;;;;;;;5002842;28;88783;-61
2022/12/12 12:55:43;;;;;;;5.72;2.50;;;;;;;;;;5004715;28;88269;-61
2022/12/12 12:58:16;;;;;;;6.30;2.80;;;;;;;;;;5004172;28;87924;-61
2022/12/12 13:00:43;;;;;;;7.15;2.60;;;;;;;;;;5004065;28;88221;-61
2022/12/12 13:03:16;;;;;;;6.82;2.78;;;;;;;;;;5004472;28;87669;-62
2022/12/12 13:05:45;;;;;;;6.75;2.67;;;;;;;;;;5003475;28;88392;-61
2022/12/12 13:08:12;;;;;;;6.68;2.70;;;;;;;;;;5003635;28;87486;-62
2022/12/12 13:10:43;;;;;;;5.85;2.50;;;;;;;;;;5002826;28;87797;-61
2022/12/12 13:13:15;;;;;;;5.57;2.58;;;;;;;;;;5003845;28;87812;-62
2022/12/12 13:15:44;;;;;;;5.28;2.33;;;;;;;;;;5002782;28;90331;-61
2022/12/12 13:18:11;;;;;;;6.78;2.50;;;;;;;;;;5006276;28;87856;-62
2022/12/12 13:20:48;;;;;;;6.03;2.42;;;;;;;;;;5003240;28;88390;-62
2022/12/12 13:23:33;;;;;;;5.95;2.50;;;;;;;;;;5002966;28;87904;-61
2022/12/12 13:26:05;;;;;;;5.68;2.30;;;;;;;;;;5001615;28;88040;-61
2022/12/12 13:28:35;;;;;;;6.00;2.58;;;;;;;;;;5003158;28;88256;-61
2022/12/12 13:31:28;;;;;;;5.90;2.15;;;;;;;;;;5003489;28;87570;-62
2022/12/12 13:34:02;;;;;;;5.47;2.30;;;;;;;;;;5004598;28;88425;-61
2022/12/12 13:36:31;;;;;;;6.22;2.30;;;;;;;;;;5001523;28;88252;-61
2022/12/12 13:38:59;;;;;;;6.45;2.30;;;;;;;;;;5006847;28;88463;-61
2022/12/12 13:41:25;;;;;;;;;;;;;;;;;;5003189;28;89166;-61
2022/12/12 13:43:56;;;;;;;5.90;2.30;;;;;;;;;;5004093;28;115649;-61
2022/12/12 13:46:26;;;;;;;6.30;2.63;;;;;;;;;;5003781;28;87636;-61
2022/12/12 13:48:54;;;;;;;6.00;2.50;;;;;;;;;;5003268;28;88235;-62
2022/12/12 13:51:33;;;;;;;6.78;2.40;;;;;;;;;;5003759;28;88148;-61
2022/12/12 13:54:05;;;;;;;6.25;2.53;;;;;;;;;;5002968;28;88041;-60
2022/12/12 13:56:43;;;;;;;5.65;2.30;;;;;;;;;;5003427;28;90263;-60
2022/12/12 13:59:21;;;;;;;5.65;2.35;;;;;;;;;;5004108;28;87699;-60
2022/12/12 14:01:48;;;;;;;6.10;2.45;;;;;;;;;;5006516;28;87713;-60
2022/12/12 14:04:34;;;;;;;5.75;2.40;;;;;;;;;;5003302;28;87892;-60
2022/12/12 14:07:02;;;;;;;5.60;2.40;;;;;;;;;;5002786;28;88602;-63
2022/12/12 14:09:35;;;;;;;7.45;2.60;;;;;;;;;;5003717;28;88254;-61
2022/12/12 14:12:17;;;;;;;5.78;2.45;;;;;;;;;;5003983;28;87732;-61
2022/12/12 14:14:51;;;;;;;4.18;2.00;;;;;;;;;;5003875;28;87970;-61
2022/12/12 14:17:20;;;;;;;6.75;2.50;;;;;;;;;;5004290;28;88010;-60
2022/12/12 14:19:49;;;;;;;6.28;2.50;;;;;;;;;;5000301;28;87762;-60
2022/12/12 14:22:34;;;;;;;5.97;2.38;;;;;;;;;;5004105;28;88022;-63
2022/12/12 14:25:03;;;;;;;5.88;2.13;;;;;;;;;;5002566;28;88476;-61
2022/12/12 14:27:48;;;;;;;5.65;2.38;;;;;;;;;;4989293;28;88379;-60
2022/12/12 14:30:19;;;;;;;5.90;2.35;;;;;;;;;;4997632;28;88395;-61
2022/12/12 14:32:53;;;;;;;5.30;2.40;;;;;;;;;;5001183;28;88598;-60
2022/12/12 14:35:19;;;;;;;6.05;2.60;;;;;;;;;;5003169;28;89059;-61
2022/12/12 14:38:04;;;;;;;6.85;3.10;;;;;;;;;;5002432;28;88093;-61
2022/12/12 14:40:32;;;;;;;8.23;3.15;;;;;;;;;;5000928;28;87988;-61
2022/12/12 14:43:18;;;;;;;9.80;3.10;;;;;;;;;;5002246;28;88361;-61
2022/12/12 14:45:48;;;;;;;8.55;3.20;;;;;;;;;;5002459;28;89207;-60
2022/12/12 14:48:17;;;;;;;8.18;3.20;;;;;;;;;;5006034;28;87946;-61
2022/12/12 14:50:46;;;;;;;6.65;3.15;;;;;;;;;;5003690;28;88038;-61
2022/12/12 14:53:15;;;;;;;7.85;3.20;;;;;;;;;;5003962;28;87921;-61
2022/12/12 14:55:45;;;;;;;8.00;3.30;;;;;;;;;;5006160;28;87934;-61
2022/12/12 14:58:12;;;;;;;8.38;3.45;;;;;;;;;;5006363;28;88959;-61
2022/12/12 15:00:45;;;;;;;9.68;4.00;;;;;;;;;;5006346;28;87822;-61
2022/12/12 15:03:11;;;;;;;8.63;3.35;;;;;;;;;;5006894;28;88189;-61
2022/12/12 15:05:38;;;;;;;8.60;3.20;;;;;;;;;;5006568;28;89305;-61
2022/12/12 15:08:04;;;;;;;11.23;3.40;;;;;;;;;;5006715;28;87630;-60
2022/12/12 15:10:32;;;;;;;7.38;3.30;;;;;;;;;;4995234;28;87955;-62
2022/12/12 15:12:58;;;;;;;8.43;3.17;;;;;;;;;;5006052;28;87640;-61
2022/12/12 15:15:26;;;;;;;9.38;3.40;;;;;;;;;;5006337;28;87908;-61
2022/12/12 15:17:54;;;;;;;9.80;3.40;;;;;;;;;;5006364;28;87899;-61